This is the latest recevied weather packets stored in our database for station/object DG4DAZ-6. If no packets are shown the sender has not sent any weather packets the latest 10 day(s).
| Time | Temp. | Humidity | Pressure | Rain* | Wind** | Luminosity | Snow |
|---|---|---|---|---|---|---|---|
| 1777533382 | 9.44° C | 36% | 1028.6 hPa | 0 mm | - | 389 W/m² | - |
| 1777532784 | 8.33° C | 39% | 1028.6 hPa | 0 mm | - | 376 W/m² | - |
| 1777532183 | 8.33° C | 37% | 1028.5 hPa | 0 mm | - | 332 W/m² | - |
| 1777531582 | 7.78° C | 38% | 1028.6 hPa | 0 mm | - | 290 W/m² | - |
| 1777530984 | 7.78° C | 38% | 1028.5 hPa | 0 mm | - | 270 W/m² | - |
| 1777530383 | 7.22° C | 40% | 1028.6 hPa | 0 mm | - | 248 W/m² | - |
| 1777529784 | 7.22° C | 41% | 1028.3 hPa | 0 mm | - | 189 W/m² | - |
| 1777529183 | 6.67° C | 41% | 1028.3 hPa | 0 mm | - | 200 W/m² | - |
| 1777528583 | 6.67° C | 42% | 1028.3 hPa | 0 mm | - | 194 W/m² | - |
| 1777527982 | 6.67° C | 43% | 1028.2 hPa | 0 mm | - | 183 W/m² | - |
| 1777527384 | 6.11° C | 44% | 1028.4 hPa | 0 mm | - | 130 W/m² | - |
| 1777526783 | 6.11° C | 44% | 1028.3 hPa | 0 mm | - | 37 W/m² | - |
| 1777526182 | 5.56° C | 44% | 1028.2 hPa | 0 mm | - | 30 W/m² | - |
| 1777525584 | 5.56° C | 44% | 1028.1 hPa | 0 mm | - | 26 W/m² | - |
| 1777524983 | 5.56° C | 44% | 1028.2 hPa | 0 mm | - | 22 W/m² | - |
| 1777524383 | 5.56° C | 45% | 1028 hPa | 0 mm | - | 17 W/m² | - |
| 1777523784 | 5.56° C | 45% | 1028.1 hPa | 0 mm | - | 13 W/m² | - |
| 1777523183 | 5.56° C | 44% | 1027.9 hPa | 0 mm | - | 10 W/m² | - |
| 1777522582 | 5.56° C | 45% | 1027.9 hPa | 0 mm | - | 6 W/m² | - |
| 1777521984 | 5.56° C | 45% | 1027.8 hPa | 0 mm | - | 0 W/m² | - |
| 1777521384 | 5.56° C | 45% | 1027.9 hPa | 0 mm | - | 0 W/m² | - |
| 1777520784 | 5.56° C | 46% | 1027.8 hPa | 0 mm | - | 0 W/m² | - |
| 1777520183 | 5.56° C | 45% | 1027.8 hPa | 0 mm | - | 0 W/m² | - |
| 1777519583 | 6.11° C | 45% | 1027.9 hPa | 0 mm | - | 0 W/m² | - |
| 1777518982 | 6.11° C | 44% | 1027.9 hPa | 0 mm | - | 0 W/m² | - |
* Rain latest hour (hover to see other rain measurements)
** Current wind speed in m/s (hover to see current wind gust speed)